Time;durP1;ratioP1;P1;durP2;ratioP2;P2;SDS_P1;SDS_P2;PMS_P1;PMS_P2;Temp;Humidity;BMP_temperature;BMP_pressure;BME280_temperature;BME280_humidity;BME280_pressure;Samples;Min_cycle;Max_cycle;Signal;HPM_P1;HPM_P2
2021/03/09 00:01:30;;;;;;;14.83;8.60;;;;;;;1.33;67.79;98265.00;4942226;28;20360;-74
2021/03/09 00:03:56;;;;;;;14.43;8.63;;;;;;;1.34;67.47;98259.88;4942137;29;20657;-74
2021/03/09 00:06:23;;;;;;;15.80;8.70;;;;;;;1.37;67.38;98258.16;4942405;29;20245;-74
2021/03/09 00:08:49;;;;;;;15.33;9.20;;;;;;;1.39;67.41;98262.44;4942616;29;20317;-75
2021/03/09 00:11:15;;;;;;;13.87;9.13;;;;;;;1.40;67.92;98258.13;4941590;29;20742;-74
2021/03/09 00:13:41;;;;;;;12.40;8.63;;;;;;;1.32;67.72;98253.88;4942010;29;20690;-74
2021/03/09 00:16:07;;;;;;;13.67;9.43;;;;;;;1.24;68.18;98253.00;4942018;28;20256;-74
2021/03/09 00:18:33;;;;;;;13.60;8.77;;;;;;;1.13;68.60;98254.72;4942843;29;20229;-75
2021/03/09 00:21:00;;;;;;;15.27;9.37;;;;;;;1.00;69.14;98253.84;4942358;29;20300;-74
2021/03/09 00:23:26;;;;;;;14.17;8.47;;;;;;;0.90;69.75;98250.41;4942124;28;20280;-74
2021/03/09 00:25:52;;;;;;;12.77;8.77;;;;;;;0.88;69.64;98247.00;4942362;28;20245;-74
2021/03/09 00:28:19;;;;;;;13.63;8.60;;;;;;;0.82;69.67;98249.53;4943389;29;20226;-73
2021/03/09 00:30:45;;;;;;;11.67;7.53;;;;;;;0.86;69.36;98246.13;4941104;29;20234;-74
2021/03/09 00:33:11;;;;;;;13.03;8.43;;;;;;;0.92;69.26;98245.25;4942909;29;20298;-74
2021/03/09 00:35:37;;;;;;;13.27;8.43;;;;;;;0.96;69.08;98245.28;4941780;28;20247;-76
2021/03/09 00:38:04;;;;;;;14.47;9.03;;;;;;;1.02;68.57;98246.16;4941315;29;20232;-75
2021/03/09 00:40:30;;;;;;;14.30;9.27;;;;;;;1.03;68.44;98245.28;4942119;29;20245;-74
2021/03/09 00:42:56;;;;;;;13.87;8.70;;;;;;;1.05;68.69;98241.00;4942148;29;20221;-73
2021/03/09 00:45:22;;;;;;;12.33;8.40;;;;;;;1.05;68.11;98235.84;4943207;28;20249;-74
2021/03/09 00:47:49;;;;;;;15.03;8.43;;;;;;;1.02;68.36;98239.28;4943323;29;20284;-74
2021/03/09 00:50:15;;;;;;;13.93;8.63;;;;;;;1.04;68.21;98239.31;4942237;29;20225;-74
2021/03/09 00:52:41;;;;;;;13.33;8.83;;;;;;;1.05;68.31;98235.84;4942272;29;20927;-74
2021/03/09 00:55:09;;;;;;;13.37;8.03;;;;;;;1.07;68.42;98234.19;4941566;28;20245;-75
2021/03/09 00:57:35;;;;;;;13.30;8.07;;;;;;;1.06;68.63;98233.28;4942164;29;20233;-74
2021/03/09 01:00:02;;;;;;;13.83;8.10;;;;;;;1.02;68.29;98233.31;4942454;29;20217;-74
2021/03/09 01:02:28;;;;;;;13.07;8.30;;;;;;;0.96;68.14;98227.31;4940895;29;20233;-74
2021/03/09 01:04:54;;;;;;;15.40;8.53;;;;;;;0.91;67.94;98231.56;4942113;28;20272;-74
2021/03/09 01:07:20;;;;;;;13.10;8.03;;;;;;;0.88;68.29;98229.03;4941732;29;20237;-74
2021/03/09 01:09:46;;;;;;;12.77;7.97;;;;;;;0.84;68.27;98231.56;4942664;29;20225;-74
2021/03/09 01:12:13;;;;;;;13.87;8.67;;;;;;;0.82;67.91;98226.41;4942072;29;20409;-76
2021/03/09 01:14:39;;;;;;;14.23;8.03;;;;;;;0.82;68.50;98228.16;4941726;28;20253;-74
2021/03/09 01:17:05;;;;;;;14.00;8.27;;;;;;;0.85;68.19;98223.88;4940834;29;20245;-76
2021/03/09 01:19:31;;;;;;;14.53;8.33;;;;;;;0.87;68.13;98221.31;4942225;29;20233;-74
2021/03/09 01:21:57;;;;;;;12.10;7.93;;;;;;;0.87;68.15;98218.75;4941617;29;20253;-74
2021/03/09 01:24:23;;;;;;;14.23;8.47;;;;;;;0.86;68.09;98214.44;4941776;28;20249;-74
2021/03/09 01:26:49;;;;;;;14.30;8.60;;;;;;;0.83;67.71;98215.31;4941731;29;20241;-76
2021/03/09 01:29:16;;;;;;;11.97;7.27;;;;;;;0.76;68.18;98208.44;4941882;29;20834;-74
2021/03/09 01:31:42;;;;;;;12.80;7.77;;;;;;;0.70;67.85;98209.31;4940723;29;20249;-76
2021/03/09 01:34:08;;;;;;;11.10;7.40;;;;;;;0.62;68.27;98207.56;4940435;28;20235;-74
2021/03/09 01:36:35;;;;;;;12.47;8.17;;;;;;;0.56;68.39;98204.13;4940493;29;20248;-75
2021/03/09 01:39:01;;;;;;;14.27;7.90;;;;;;;0.56;68.28;98201.56;4941900;29;20663;-74
2021/03/09 01:41:27;;;;;;;12.67;7.90;;;;;;;0.58;68.23;98197.28;4941130;29;20242;-74
2021/03/09 01:43:54;;;;;;;12.80;7.57;;;;;;;0.57;68.38;98198.16;4941444;29;20229;-74
2021/03/09 01:46:22;;;;;;;13.27;8.33;;;;;;;0.54;68.43;98195.56;4940184;29;20241;-74
2021/03/09 01:48:48;;;;;;;14.93;8.77;;;;;;;0.47;68.78;98191.28;4942160;29;20217;-75
2021/03/09 01:51:15;;;;;;;17.20;8.93;;;;;;;0.44;68.37;98186.16;4940660;29;20257;-75
2021/03/09 01:53:42;;;;;;;13.57;7.87;;;;;;;0.40;68.35;98189.53;4941208;29;20322;-74
2021/03/09 01:56:08;;;;;;;14.23;8.13;;;;;;;0.34;68.44;98192.94;4940623;28;20238;-74
2021/03/09 01:58:34;;;;;;;14.07;8.50;;;;;;;0.31;68.99;98185.25;4940546;29;20763;-74
2021/03/09 02:01:01;;;;;;;12.47;8.27;;;;;;;0.31;68.66;98179.25;4940931;29;20296;-75
2021/03/09 02:03:28;;;;;;;12.07;7.40;;;;;;;0.30;69.25;98177.56;4941003;29;20754;-73
2021/03/09 02:05:54;;;;;;;11.57;7.67;;;;;;;0.30;68.50;98185.25;4940637;28;20754;-74
2021/03/09 02:08:20;;;;;;;13.07;7.70;;;;;;;0.29;68.62;98173.25;4941550;29;20723;-74
2021/03/09 02:10:46;;;;;;;12.67;7.83;;;;;;;0.29;68.83;98176.69;4940871;29;20328;-73
2021/03/09 02:13:19;;;;;;;9.63;6.67;;;;;;;0.28;68.80;98179.25;4940882;29;20225;-73
2021/03/09 02:15:50;;;;;;;12.03;7.60;;;;;;;0.17;68.68;98177.50;4939202;28;20241;-74
2021/03/09 02:18:21;;;;;;;13.13;8.17;;;;;;;0.11;68.68;98172.38;4941239;29;20929;-73
2021/03/09 02:21:05;;;;;;;11.73;7.67;;;;;;;0.07;68.74;98175.75;4939469;29;20245;-74
2021/03/09 02:24:10;;;;;;;13.50;7.73;;;;;;;0.00;69.56;98168.91;4940746;29;20280;-73
2021/03/09 02:26:47;;;;;;;12.63;7.60;;;;;;;0.03;68.57;98171.47;4940018;29;20284;-73
2021/03/09 02:29:27;;;;;;;13.53;7.57;;;;;;;0.02;68.54;98164.66;4941448;29;20209;-74
2021/03/09 02:31:55;;;;;;;12.23;7.30;;;;;;;0.05;68.80;98171.47;4939887;29;20248;-73
2021/03/09 02:34:26;;;;;;;13.27;7.77;;;;;;;0.08;69.42;98168.94;4940093;28;20268;-73
2021/03/09 02:36:53;;;;;;;12.93;7.60;;;;;;;0.11;68.43;98159.53;4940416;29;20241;-73
2021/03/09 02:39:20;;;;;;;10.50;6.90;;;;;;;0.12;68.85;98156.09;4939878;29;20759;-73
2021/03/09 02:41:48;;;;;;;11.30;7.37;;;;;;;0.08;69.03;98156.97;4939142;29;20878;-74
2021/03/09 02:44:17;;;;;;;11.13;7.30;;;;;;;0.09;68.34;98158.69;4940228;28;20723;-75
2021/03/09 02:46:45;;;;;;;12.90;8.43;;;;;;;0.06;68.53;98162.94;4942910;28;20242;-73
2021/03/09 02:49:13;;;;;;;11.90;7.40;;;;;;;0.02;68.92;98159.50;4945153;29;20217;-73
2021/03/09 02:51:41;;;;;;;11.50;7.10;;;;;;;0.01;68.97;98152.66;4944293;29;20280;-75
2021/03/09 02:54:08;;;;;;;10.53;7.30;;;;;;;0.01;68.85;98149.25;4944622;28;20600;-74
2021/03/09 02:56:37;;;;;;;11.93;7.23;;;;;;;-0.01;68.45;98146.66;4944031;29;20252;-73
2021/03/09 02:59:05;;;;;;;11.07;7.70;;;;;;;-0.06;68.85;98148.34;4944979;29;20228;-74
2021/03/09 03:01:32;;;;;;;10.20;6.67;;;;;;;-0.05;68.99;98137.25;4944283;29;20245;-73
2021/03/09 03:03:58;;;;;;;10.93;6.97;;;;;;;-0.06;68.78;98143.22;4944320;29;20233;-73
2021/03/09 03:06:26;;;;;;;11.87;7.37;;;;;;;-0.07;68.82;98146.66;4943592;28;20249;-74
2021/03/09 03:08:52;;;;;;;10.63;6.80;;;;;;;-0.12;68.64;98138.09;4944598;29;20277;-74
2021/03/09 03:11:19;;;;;;;11.17;7.20;;;;;;;-0.13;68.52;98136.34;4943632;29;20237;-73
2021/03/09 03:13:45;;;;;;;11.63;7.47;;;;;;;-0.15;68.53;98138.06;4944656;29;20218;-73
2021/03/09 03:16:12;;;;;;;11.20;7.17;;;;;;;-0.16;68.61;98139.78;4943537;28;20249;-73
2021/03/09 03:18:40;;;;;;;11.60;7.43;;;;;;;-0.16;68.54;98137.22;4944075;29;20221;-73
2021/03/09 03:21:09;;;;;;;14.07;8.00;;;;;;;-0.16;68.85;98133.81;4942574;29;20249;-73
2021/03/09 03:23:37;;;;;;;12.63;7.20;;;;;;;-0.21;68.60;98134.63;4944467;29;20255;-75
2021/03/09 03:26:05;;;;;;;10.60;7.07;;;;;;;-0.24;68.46;98134.63;4943682;28;20248;-73
2021/03/09 03:28:32;;;;;;;15.87;8.47;;;;;;;-0.30;68.70;98134.59;4944167;29;20221;-74
2021/03/09 03:31:00;;;;;;;12.43;7.63;;;;;;;-0.36;68.96;98134.56;4943190;29;21195;-73
2021/03/09 03:33:27;;;;;;;13.97;7.63;;;;;;;-0.37;68.75;98137.97;4943869;29;20214;-73
2021/03/09 03:35:53;;;;;;;10.83;7.17;;;;;;;-0.34;68.76;98132.00;4943375;28;20245;-73
2021/03/09 03:38:19;;;;;;;12.37;7.37;;;;;;;-0.34;68.70;98135.41;4942808;29;20221;-74
2021/03/09 03:40:46;;;;;;;12.30;7.40;;;;;;;-0.33;68.93;98134.59;4941774;29;20237;-74
2021/03/09 03:43:12;;;;;;;12.47;7.37;;;;;;;-0.33;68.59;98134.59;4943387;29;20276;-74
2021/03/09 03:45:39;;;;;;;16.50;8.70;;;;;;;-0.31;68.38;98138.00;4943306;28;20242;-73
2021/03/09 03:48:05;;;;;;;13.23;7.73;;;;;;;-0.29;68.34;98138.88;4942988;29;20221;-73
2021/03/09 03:50:32;;;;;;;13.57;7.60;;;;;;;-0.27;68.38;98129.47;4942845;29;20241;-73
2021/03/09 03:53:04;;;;;;;14.00;8.17;;;;;;;-0.26;68.31;98127.75;4943897;29;20252;-75
2021/03/09 03:55:41;;;;;;;12.20;7.27;;;;;;;-0.25;67.91;98127.78;4942353;28;20245;-73
2021/03/09 03:58:13;;;;;;;11.20;7.10;;;;;;;-0.26;68.49;98120.94;4942665;28;20221;-75
2021/03/09 04:00:40;;;;;;;12.70;7.20;;;;;;;-0.25;68.55;98127.78;4943022;29;20325;-73
2021/03/09 04:03:07;;;;;;;13.50;8.00;;;;;;;-0.25;68.11;98121.78;4943763;29;20793;-73
2021/03/09 04:05:33;;;;;;;13.80;7.83;;;;;;;-0.25;68.47;98116.66;4942824;28;20241;-73
2021/03/09 04:08:00;;;;;;;11.47;7.37;;;;;;;-0.26;68.52;98115.81;4943244;29;20221;-73
2021/03/09 04:10:26;;;;;;;13.33;8.00;;;;;;;-0.24;68.38;98123.50;4943044;29;20237;-74
2021/03/09 04:12:53;;;;;;;16.00;8.57;;;;;;;-0.28;68.42;98114.94;4943499;29;20220;-73
2021/03/09 04:15:21;;;;;;;15.30;8.67;;;;;;;-0.31;68.48;98117.50;4941503;28;20271;-74
2021/03/09 04:17:47;;;;;;;12.30;7.47;;;;;;;-0.33;68.48;98114.09;4942397;29;20228;-73
2021/03/09 04:20:14;;;;;;;14.23;7.90;;;;;;;-0.34;68.65;98117.47;4942743;29;20220;-73
2021/03/09 04:22:40;;;;;;;10.37;7.23;;;;;;;-0.37;69.01;98112.34;4943992;29;20241;-73
2021/03/09 04:25:08;;;;;;;11.53;7.50;;;;;;;-0.45;68.79;98106.34;4943360;28;20760;-73
2021/03/09 04:27:34;;;;;;;11.60;7.13;;;;;;;-0.44;69.05;98108.03;4943780;29;20221;-74
2021/03/09 04:30:00;;;;;;;12.40;7.50;;;;;;;-0.41;69.15;98114.03;4944461;29;20683;-73
2021/03/09 04:32:27;;;;;;;12.80;7.63;;;;;;;-0.40;69.22;98112.34;4943341;29;20245;-73
2021/03/09 04:34:54;;;;;;;12.53;7.30;;;;;;;-0.41;68.82;98113.19;4944081;28;20341;-73
2021/03/09 04:37:21;;;;;;;11.87;7.53;;;;;;;-0.41;69.41;98116.59;4942612;29;20232;-74
2021/03/09 04:39:47;;;;;;;14.17;8.17;;;;;;;-0.37;69.26;98117.47;4944308;29;20251;-75
2021/03/09 04:42:13;;;;;;;13.33;7.80;;;;;;;-0.36;69.31;98108.94;4942972;29;20242;-74
2021/03/09 04:44:40;;;;;;;13.97;7.30;;;;;;;-0.37;69.08;98117.47;4943297;28;20234;-73
2021/03/09 04:47:07;;;;;;;12.30;7.37;;;;;;;-0.36;68.87;98108.94;4943036;29;20240;-74
2021/03/09 04:49:35;;;;;;;13.43;7.67;;;;;;;-0.38;69.29;98118.31;4943539;29;20765;-74
2021/03/09 04:52:02;;;;;;;13.17;7.53;;;;;;;-0.38;69.12;98115.75;4941790;29;20241;-74
2021/03/09 04:54:28;;;;;;;16.07;7.50;;;;;;;-0.38;69.34;98120.03;4941677;28;20237;-73
2021/03/09 04:56:54;;;;;;;13.93;7.77;;;;;;;-0.44;69.23;98114.03;4941728;29;20635;-74
2021/03/09 04:59:21;;;;;;;13.30;7.03;;;;;;;-0.42;69.22;98120.00;4942916;29;20273;-74
2021/03/09 05:01:47;;;;;;;12.40;7.33;;;;;;;-0.43;69.03;98113.16;4941578;29;20249;-73
2021/03/09 05:04:13;;;;;;;13.17;7.37;;;;;;;-0.41;69.12;98121.72;4941664;28;20228;-73
2021/03/09 05:06:40;;;;;;;11.77;6.90;;;;;;;-0.43;69.42;98114.88;4941726;29;20738;-73
2021/03/09 05:09:07;;;;;;;15.30;8.37;;;;;;;-0.46;69.18;98117.41;4943227;28;20221;-74
2021/03/09 05:11:33;;;;;;;13.47;8.20;;;;;;;-0.47;69.02;98113.16;4942644;29;20637;-73
2021/03/09 05:13:59;;;;;;;16.00;8.77;;;;;;;-0.50;69.00;98113.97;4943273;29;20217;-74
2021/03/09 05:16:25;;;;;;;13.77;8.20;;;;;;;-0.50;68.67;98102.88;4942373;28;20284;-73
2021/03/09 05:18:52;;;;;;;15.60;7.63;;;;;;;-0.50;69.07;98097.75;4943382;29;20312;-74
2021/03/09 05:21:18;;;;;;;12.27;7.47;;;;;;;-0.55;69.46;98105.44;4941681;29;20237;-75
2021/03/09 05:23:45;;;;;;;13.43;7.67;;;;;;;-0.55;69.79;98097.75;4942828;29;20232;-74
2021/03/09 05:26:11;;;;;;;12.83;7.33;;;;;;;-0.53;69.37;98098.63;4942147;28;20241;-74
2021/03/09 05:28:37;;;;;;;13.60;7.57;;;;;;;-0.48;69.28;98108.88;4943025;29;20539;-74
2021/03/09 05:31:04;;;;;;;12.47;7.53;;;;;;;-0.46;69.15;98107.16;4942202;29;20242;-73
2021/03/09 05:33:30;;;;;;;16.60;8.00;;;;;;;-0.44;69.15;98100.34;4942888;29;20225;-74
2021/03/09 05:35:56;;;;;;;14.33;7.90;;;;;;;-0.43;69.72;98102.06;4942065;28;20489;-74
2021/03/09 05:38:22;;;;;;;12.27;7.93;;;;;;;-0.41;69.19;98108.91;4943046;29;20255;-73
2021/03/09 05:40:49;;;;;;;17.00;7.93;;;;;;;-0.37;69.32;98106.34;4942256;29;20237;-73
2021/03/09 05:43:16;;;;;;;13.40;7.73;;;;;;;-0.34;69.88;98112.34;4942131;29;20864;-73
2021/03/09 05:45:42;;;;;;;13.73;7.83;;;;;;;-0.34;69.87;98108.94;4941740;28;20365;-74
2021/03/09 05:48:09;;;;;;;15.37;8.23;;;;;;;-0.32;70.30;98112.38;4942188;29;20213;-75
2021/03/09 05:50:35;;;;;;;17.60;9.17;;;;;;;-0.32;70.23;98115.78;4941848;29;20237;-74
2021/03/09 05:53:01;;;;;;;17.70;8.60;;;;;;;-0.30;69.74;98108.09;4942394;29;20221;-74
2021/03/09 05:55:27;;;;;;;13.60;7.93;;;;;;;-0.27;70.02;98114.09;4942194;28;20245;-73
2021/03/09 05:57:57;;;;;;;15.70;7.63;;;;;;;-0.26;70.11;98105.56;4942591;29;21034;-73
2021/03/09 06:00:25;;;;;;;15.80;7.80;;;;;;;-0.26;69.83;98112.38;4942013;29;20242;-74
2021/03/09 06:02:52;;;;;;;13.07;7.13;;;;;;;-0.25;70.00;98106.41;4933583;28;20245;-76
2021/03/09 06:05:19;;;;;;;13.10;7.87;;;;;;;-0.28;70.26;98111.53;4944478;28;20244;-74
2021/03/09 06:07:46;;;;;;;12.23;7.97;;;;;;;-0.29;70.05;98112.38;4942489;28;20218;-74
2021/03/09 06:10:21;;;;;;;14.97;7.93;;;;;;;-0.27;70.08;98119.22;4942292;29;20296;-75
2021/03/09 06:12:47;;;;;;;13.97;7.87;;;;;;;-0.24;70.36;98113.25;4941363;28;20213;-73
2021/03/09 06:15:14;;;;;;;16.33;9.03;;;;;;;-0.22;70.31;98106.41;4941872;28;20309;-76
2021/03/09 06:17:42;;;;;;;12.77;7.83;;;;;;;-0.21;70.45;98108.97;4942769;29;20319;-74
2021/03/09 06:20:11;;;;;;;15.77;8.47;;;;;;;-0.21;70.38;98111.53;4942236;28;21251;-73
2021/03/09 06:22:39;;;;;;;15.07;8.37;;;;;;;-0.20;70.86;98120.97;4940932;29;20659;-73
2021/03/09 06:25:07;;;;;;;13.03;8.23;;;;;;;-0.19;71.01;98109.00;4941446;28;20300;-73
2021/03/09 06:27:33;;;;;;;17.60;9.33;;;;;;;-0.13;71.57;98110.72;4942467;29;20242;-76
2021/03/09 06:30:00;;;;;;;16.33;8.97;;;;;;;-0.09;71.16;98112.44;4942080;29;20228;-74
2021/03/09 06:32:27;;;;;;;16.67;8.97;;;;;;;-0.04;71.08;98126.13;4941631;29;20304;-74
2021/03/09 06:34:54;;;;;;;16.03;8.73;;;;;;;0.01;71.39;98118.47;4942054;28;20251;-74
2021/03/09 06:37:22;;;;;;;18.27;9.37;;;;;;;0.01;71.46;98114.19;4941832;28;20288;-74
2021/03/09 06:39:51;;;;;;;18.87;8.53;;;;;;;0.05;70.94;98115.91;4942311;29;20303;-76
2021/03/09 06:42:18;;;;;;;17.27;9.40;;;;;;;0.07;71.90;98121.03;4941181;29;20241;-73
2021/03/09 06:44:49;;;;;;;19.77;9.63;;;;;;;0.10;71.46;98121.91;4940329;28;20242;-74
2021/03/09 06:47:15;;;;;;;17.20;9.03;;;;;;;0.14;71.49;98121.06;4941634;29;20523;-76
2021/03/09 06:50:00;;;;;;;16.67;9.63;;;;;;;0.22;71.58;98133.03;4942162;29;20228;-74
2021/03/09 06:52:26;;;;;;;15.23;8.77;;;;;;;0.23;71.31;98127.94;4941129;29;20251;-74
2021/03/09 06:54:53;;;;;;;15.50;8.77;;;;;;;0.28;71.59;98126.22;4942069;28;20237;-74
2021/03/09 06:57:19;;;;;;;18.23;8.77;;;;;;;0.33;71.54;98131.34;4940619;29;20237;-76
2021/03/09 06:59:48;;;;;;;15.00;9.20;;;;;;;0.35;71.89;98130.53;4942400;29;20236;-75
2021/03/09 07:02:15;;;;;;;14.63;8.20;;;;;;;0.37;72.25;98139.06;4941106;29;20324;-74
2021/03/09 07:04:43;;;;;;;18.30;9.30;;;;;;;0.42;72.13;98133.09;4941925;28;20237;-74
2021/03/09 07:07:11;;;;;;;19.43;9.93;;;;;;;0.46;72.02;98137.38;4941478;29;20248;-74
2021/03/09 07:09:37;;;;;;;17.07;9.93;;;;;;;0.51;71.80;98139.09;4942225;29;20231;-74
2021/03/09 07:12:04;;;;;;;18.03;9.53;;;;;;;0.56;71.76;98145.09;4941704;28;20244;-74
2021/03/09 07:14:32;;;;;;;16.43;9.50;;;;;;;0.60;72.47;98135.69;4941861;28;20663;-74
2021/03/09 07:17:01;;;;;;;18.53;9.57;;;;;;;0.60;72.34;98140.81;4941630;29;20241;-75
2021/03/09 07:19:34;;;;;;;18.83;10.43;;;;;;;0.69;72.43;98145.09;4941537;29;20232;-74
2021/03/09 07:22:01;;;;;;;20.73;10.83;;;;;;;0.75;72.43;98148.56;4940644;29;20722;-76
2021/03/09 07:24:28;;;;;;;18.73;10.10;;;;;;;0.79;72.51;98154.53;4942010;28;20221;-75
2021/03/09 07:26:56;;;;;;;24.60;11.40;;;;;;;0.88;72.02;98151.97;4941486;29;20245;-74
2021/03/09 07:29:24;;;;;;;17.50;9.50;;;;;;;0.96;72.16;98157.09;4941661;29;20729;-74
2021/03/09 07:31:52;;;;;;;16.63;9.57;;;;;;;1.01;72.50;98154.53;4941582;28;20233;-74
2021/03/09 07:34:19;;;;;;;18.80;10.60;;;;;;;1.07;72.34;98159.69;4945182;28;20229;-74
2021/03/09 07:36:45;;;;;;;20.73;10.00;;;;;;;1.09;71.88;98152.81;4944663;29;20759;-74
2021/03/09 07:39:12;;;;;;;21.23;11.17;;;;;;;1.13;71.71;98152.81;4945452;29;20221;-74
2021/03/09 07:41:39;;;;;;;20.13;10.13;;;;;;;1.18;71.63;98150.25;4944686;29;20258;-75
2021/03/09 07:44:06;;;;;;;21.37;11.90;;;;;;;1.26;71.32;98158.78;4944229;29;20831;-74
2021/03/09 07:46:32;;;;;;;19.07;10.73;;;;;;;1.30;71.97;98147.63;4944584;28;20725;-74
2021/03/09 07:48:58;;;;;;;18.77;10.63;;;;;;;1.33;72.09;98150.22;4945241;29;20222;-74
2021/03/09 07:51:24;;;;;;;17.90;9.67;;;;;;;1.40;71.59;98145.03;4944505;29;20965;-74
2021/03/09 07:54:10;;;;;;;20.10;9.83;;;;;;;1.49;71.52;98145.03;4945086;29;20221;-73
2021/03/09 07:56:36;;;;;;;20.30;10.43;;;;;;;1.54;71.50;98149.31;4943313;29;21036;-74
2021/03/09 07:59:07;;;;;;;21.30;10.53;;;;;;;1.59;71.31;98144.16;4945472;29;20220;-74
2021/03/09 08:01:46;;;;;;;19.23;10.73;;;;;;;1.64;71.36;98145.00;4944043;29;20237;-74
2021/03/09 08:04:13;;;;;;;18.53;10.37;;;;;;;1.68;71.01;98133.84;4944336;28;20650;-74
2021/03/09 08:06:43;;;;;;;21.93;11.77;;;;;;;1.77;70.73;98144.97;4944454;29;20237;-74
2021/03/09 08:09:33;;;;;;;20.83;9.93;;;;;;;1.87;70.84;98151.78;4944420;29;20260;-74
2021/03/09 08:11:59;;;;;;;20.27;11.13;;;;;;;1.91;70.38;98145.75;4943521;28;20230;-73
2021/03/09 08:14:27;;;;;;;21.17;10.83;;;;;;;1.95;70.25;98146.59;4944526;28;20588;-74
2021/03/09 08:16:53;;;;;;;19.67;10.02;;;;;;;2.05;70.02;98146.56;4944544;29;20245;-74
2021/03/09 08:19:42;;;;;;;18.97;10.47;;;;;;;2.11;70.11;98145.66;4943116;29;20221;-76
2021/03/09 08:22:08;;;;;;;19.03;10.40;;;;;;;2.15;70.33;98151.66;4939314;29;20245;-74
2021/03/09 08:24:57;;;;;;;17.40;9.50;;;;;;;2.24;70.02;98154.19;4944276;28;20240;-75
2021/03/09 08:27:50;;;;;;;19.07;10.70;;;;;;;2.29;69.56;98150.72;4943218;29;20336;-73
2021/03/09 08:30:38;;;;;;;18.23;10.03;;;;;;;2.35;69.85;98146.41;4944321;29;20217;-74
2021/03/09 08:33:32;;;;;;;19.20;11.07;;;;;;;2.41;69.40;98148.94;4943789;29;20218;-74
2021/03/09 08:35:59;;;;;;;21.03;11.30;;;;;;;2.47;69.38;98149.75;4943308;28;20743;-74
2021/03/09 08:38:25;;;;;;;18.67;10.70;;;;;;;2.51;69.21;98146.28;4944027;29;20232;-74
2021/03/09 08:41:12;;;;;;;21.37;10.90;;;;;;;2.62;69.11;98151.38;4943774;29;20237;-73
2021/03/09 08:43:40;;;;;;;20.10;10.60;;;;;;;2.69;68.70;98144.47;4943343;28;20312;-74
2021/03/09 08:46:09;;;;;;;24.07;11.00;;;;;;;2.77;68.28;98153.00;4942500;28;20245;-74
2021/03/09 08:48:56;;;;;;;20.53;10.97;;;;;;;2.87;68.21;98144.34;4944180;29;20230;-73
2021/03/09 08:51:46;;;;;;;20.35;10.52;;;;;;;2.98;68.34;98139.09;4938430;29;20278;-74
2021/03/09 08:54:36;;;;;;;20.57;10.63;;;;;;;3.03;68.46;98144.19;4943232;28;20890;-74
2021/03/09 08:57:04;;;;;;;19.77;11.73;;;;;;;3.10;67.62;98140.72;4943203;29;20834;-75
2021/03/09 08:59:32;;;;;;;20.67;11.17;;;;;;;3.22;67.49;98135.44;4926265;29;20939;-75
2021/03/09 09:02:12;;;;;;;24.45;12.77;;;;;;;3.36;66.86;98147.34;4942435;29;20245;-74
2021/03/09 09:04:39;;;;;;;21.27;11.83;;;;;;;3.45;67.27;98134.34;4942714;28;20263;-74
2021/03/09 09:07:25;;;;;;;19.05;10.45;;;;;;;3.59;66.89;98129.91;4941838;29;20233;-77
2021/03/09 09:09:52;;;;;;;22.30;10.47;;;;;;;3.66;66.20;98136.72;4942841;29;20687;-75
2021/03/09 09:12:27;;;;;;;18.08;10.80;;;;;;;3.80;65.97;98128.81;4942788;28;20245;-75
2021/03/09 09:15:20;;;;;;;20.50;11.35;;;;;;;3.96;65.56;98124.31;4942944;28;20257;-75
2021/03/09 09:17:49;;;;;;;20.90;11.77;;;;;;;4.07;65.14;98126.78;4941636;29;20320;-75
2021/03/09 09:20:18;;;;;;;20.23;11.35;;;;;;;4.20;65.28;98119.72;4942105;29;20217;-74
2021/03/09 09:22:45;;;;;;;21.05;12.73;;;;;;;4.31;64.86;98120.41;4941459;29;20252;-76
2021/03/09 09:25:13;;;;;;;21.52;12.32;;;;;;;4.39;64.68;98118.59;4942001;28;20753;-75
2021/03/09 09:27:42;;;;;;;22.50;12.55;;;;;;;4.52;63.98;98119.28;4942726;29;20250;-75
2021/03/09 09:30:11;;;;;;;19.92;11.75;;;;;;;4.68;64.24;98114.72;4941966;29;20296;-75
2021/03/09 09:32:56;;;;;;;16.98;10.82;;;;;;;4.70;62.36;98107.78;4941922;29;20579;-75
2021/03/09 09:35:23;;;;;;;19.75;11.90;;;;;;;4.76;62.81;98112.00;4941937;28;20602;-76
2021/03/09 09:37:52;;;;;;;20.65;12.82;;;;;;;4.88;62.45;98110.97;4943368;29;20221;-74
2021/03/09 09:40:21;;;;;;;20.27;12.77;;;;;;;4.90;62.09;98111.78;4942120;29;20279;-77
2021/03/09 09:43:02;;;;;;;16.02;10.98;;;;;;;4.94;61.77;98108.28;4942848;29;20261;-76
2021/03/09 09:45:28;;;;;;;20.80;12.10;;;;;;;4.99;61.57;98109.06;4942362;28;20518;-76
2021/03/09 09:47:56;;;;;;;20.38;12.80;;;;;;;5.02;61.63;98109.00;4942658;29;20221;-74
2021/03/09 09:50:23;;;;;;;18.02;11.43;;;;;;;4.98;61.22;98113.38;4941279;29;20237;-74
2021/03/09 09:52:57;;;;;;;20.45;12.05;;;;;;;5.00;61.10;98110.78;4943032;29;20214;-75
2021/03/09 09:55:25;;;;;;;20.75;12.40;;;;;;;5.10;61.01;98101.97;4941008;28;20247;-74
2021/03/09 09:57:52;;;;;;;20.85;13.52;;;;;;;5.16;60.54;98101.00;4942884;29;21011;-74
2021/03/09 10:00:20;;;;;;;20.58;12.18;;;;;;;5.22;60.79;98101.75;4942235;29;20213;-76
2021/03/09 10:03:15;;;;;;;18.10;11.48;;;;;;;5.28;60.30;98099.94;4940663;29;20241;-74
2021/03/09 10:05:43;;;;;;;22.65;11.80;;;;;;;5.46;60.49;98103.91;4942028;28;20311;-75
2021/03/09 10:08:10;;;;;;;19.88;10.60;;;;;;;5.43;60.15;98103.97;4942817;29;20760;-74
2021/03/09 10:10:37;;;;;;;20.98;11.30;;;;;;;5.39;59.64;98104.03;4941158;28;20320;-76
2021/03/09 10:13:19;;;;;;;18.75;11.90;;;;;;;5.75;60.15;98095.56;4942545;29;20670;-75
2021/03/09 10:15:46;;;;;;;19.30;11.35;;;;;;;5.89;59.32;98093.56;4940295;28;20241;-75
2021/03/09 10:18:16;;;;;;;21.77;11.55;;;;;;;6.11;59.36;98093.16;4942667;29;20312;-75
2021/03/09 10:20:43;;;;;;;21.35;11.65;;;;;;;6.24;59.34;98097.16;4941843;29;20237;-74
2021/03/09 10:23:09;;;;;;;18.77;11.00;;;;;;;6.29;59.21;98092.75;4942059;29;20248;-76
2021/03/09 10:25:41;;;;;;;16.20;10.45;;;;;;;6.32;58.42;98092.69;4940727;28;20265;-75
2021/03/09 10:28:07;;;;;;;17.75;11.38;;;;;;;6.33;58.76;98083.16;4941736;29;20304;-75
2021/03/09 10:30:41;;;;;;;16.92;10.70;;;;;;;6.28;57.71;98091.03;4941961;29;20335;-76
2021/03/09 10:33:11;;;;;;;17.90;9.18;;;;;;;6.11;58.60;98090.56;4941703;29;20228;-75
2021/03/09 10:36:06;;;;;;;13.82;8.80;;;;;;;5.90;56.83;98089.22;4941028;28;20251;-75
2021/03/09 10:38:32;;;;;;;16.90;10.23;;;;;;;5.86;57.78;98083.25;4942724;29;20217;-74
2021/03/09 10:40:58;;;;;;;19.23;11.13;;;;;;;6.04;57.45;98087.25;4941657;29;20252;-74
2021/03/09 10:43:41;;;;;;;17.98;10.82;;;;;;;6.21;57.54;98081.69;4942633;29;20245;-77
2021/03/09 10:46:07;;;;;;;17.63;10.73;;;;;;;6.13;57.38;98074.09;4940913;28;20364;-74
2021/03/09 10:48:33;;;;;;;17.90;10.38;;;;;;;6.05;57.50;98077.75;4942234;29;20285;-75
2021/03/09 10:50:59;;;;;;;15.20;8.88;;;;;;;5.90;57.48;98077.16;4941470;29;20733;-75
2021/03/09 10:53:26;;;;;;;20.10;11.68;;;;;;;5.91;57.22;98076.25;4942177;29;20221;-75
2021/03/09 10:55:52;;;;;;;13.82;7.68;;;;;;;5.86;57.78;98072.06;4941511;28;20245;-75
2021/03/09 10:58:18;;;;;;;16.65;10.45;;;;;;;5.87;57.56;98079.81;4942119;29;20227;-75
2021/03/09 11:00:44;;;;;;;15.60;9.60;;;;;;;5.86;57.78;98075.50;4941596;29;20237;-77
2021/03/09 11:03:10;;;;;;;18.52;9.95;;;;;;;5.75;57.91;98070.56;4941436;29;20861;-75
2021/03/09 11:05:36;;;;;;;16.30;10.73;;;;;;;5.89;57.28;98066.84;4940608;28;20801;-75
2021/03/09 11:08:02;;;;;;;18.88;10.55;;;;;;;5.95;57.12;98066.69;4945012;28;20242;-74
2021/03/09 11:10:29;;;;;;;17.10;10.40;;;;;;;5.98;56.88;98067.50;4944213;29;20242;-76
2021/03/09 11:12:55;;;;;;;15.00;9.75;;;;;;;5.93;57.05;98069.31;4945357;28;20302;-75
2021/03/09 11:15:21;;;;;;;18.38;9.48;;;;;;;5.79;56.48;98067.03;4944937;28;20245;-75
2021/03/09 11:17:47;;;;;;;16.08;9.48;;;;;;;5.72;56.10;98070.63;4945741;29;20222;-74
2021/03/09 11:20:15;;;;;;;12.93;7.47;;;;;;;5.72;55.58;98069.78;4944158;29;20223;-74
2021/03/09 11:22:41;;;;;;;12.43;7.82;;;;;;;5.88;54.88;98071.16;4945342;29;20233;-74
2021/03/09 11:25:08;;;;;;;14.02;9.02;;;;;;;6.26;54.22;98064.31;4945210;28;20594;-75
2021/03/09 11:27:35;;;;;;;13.27;8.82;;;;;;;6.64;53.97;98062.56;4945680;29;20229;-75
2021/03/09 11:30:02;;;;;;;13.85;9.15;;;;;;;6.84;53.01;98062.09;4945837;29;20884;-75
2021/03/09 11:32:28;;;;;;;14.07;8.55;;;;;;;6.80;53.67;98067.38;4945573;29;20251;-75
2021/03/09 11:34:54;;;;;;;13.25;8.65;;;;;;;6.56;53.48;98061.88;4945484;28;20292;-75
2021/03/09 11:37:20;;;;;;;14.38;9.02;;;;;;;6.32;53.26;98056.41;4943579;29;20241;-75